Crow Hill, Vermont
Current Conditions -  °F | °C
As of 2:35 PM on Sunday 23 Nov 2014 (Local Time) from KFSO Reporting Station
Overcast Overcast  
Wind Chill: 45°   Ceiling: 3400
Heat Index: 45°   Visibility: 10mi
Dew Point: 40°   Wind: 3mph
Humidity: 81%   Direction: 200°SSW
Pressure: 30.05"   Gusts: NA
Location:  44.8776°N, 72.9201°W
Report Text: KFSO 231935Z AUTO 20003KT 10SM SCT023 BKN034 OVC050 07/04 A3005 RMK AO2 T00720042
Loading
Personal Weather Stations






























Interactive Weather Map New forecast layout! Learn more

10-Day Weather Forecast

Advertisements
Track Severe Weather on mobile